sensor_id;sensor_type;location;lat;lon;timestamp;P1;durP1;ratioP1;P2;durP2;ratioP2
16284;SDS011;8250;52.426;9.450;2022-07-30T00:01:03;4.65;;;3.50;;
16284;SDS011;8250;52.426;9.450;2022-07-30T00:03:30;4.22;;;3.05;;
16284;SDS011;8250;52.426;9.450;2022-07-30T00:05:59;3.55;;;3.13;;
16284;SDS011;8250;52.426;9.450;2022-07-30T00:08:26;3.67;;;3.38;;
16284;SDS011;8250;52.426;9.450;2022-07-30T00:10:53;4.95;;;3.60;;
16284;SDS011;8250;52.426;9.450;2022-07-30T00:13:20;3.80;;;3.25;;
16284;SDS011;8250;52.426;9.450;2022-07-30T00:15:47;4.38;;;3.97;;
16284;SDS011;8250;52.426;9.450;2022-07-30T00:18:14;5.10;;;4.10;;
16284;SDS011;8250;52.426;9.450;2022-07-30T00:20:41;5.32;;;4.55;;
16284;SDS011;8250;52.426;9.450;2022-07-30T00:23:09;5.85;;;5.15;;
16284;SDS011;8250;52.426;9.450;2022-07-30T00:25:36;6.30;;;4.90;;
16284;SDS011;8250;52.426;9.450;2022-07-30T00:28:03;6.60;;;4.90;;
16284;SDS011;8250;52.426;9.450;2022-07-30T00:30:30;4.75;;;3.92;;
16284;SDS011;8250;52.426;9.450;2022-07-30T00:32:57;4.50;;;3.80;;
16284;SDS011;8250;52.426;9.450;2022-07-30T00:35:24;3.30;;;3.00;;
16284;SDS011;8250;52.426;9.450;2022-07-30T00:37:51;3.90;;;3.35;;
16284;SDS011;8250;52.426;9.450;2022-07-30T00:40:19;4.60;;;3.10;;
16284;SDS011;8250;52.426;9.450;2022-07-30T00:42:46;3.67;;;3.10;;
16284;SDS011;8250;52.426;9.450;2022-07-30T00:45:14;6.05;;;3.40;;
16284;SDS011;8250;52.426;9.450;2022-07-30T00:47:42;4.30;;;3.60;;
16284;SDS011;8250;52.426;9.450;2022-07-30T00:50:10;3.67;;;3.38;;
16284;SDS011;8250;52.426;9.450;2022-07-30T00:52:38;4.97;;;3.55;;
16284;SDS011;8250;52.426;9.450;2022-07-30T00:55:06;6.78;;;4.95;;
16284;SDS011;8250;52.426;9.450;2022-07-30T00:57:37;5.18;;;4.68;;
16284;SDS011;8250;52.426;9.450;2022-07-30T01:00:05;4.07;;;3.28;;
16284;SDS011;8250;52.426;9.450;2022-07-30T01:02:34;5.18;;;3.85;;
16284;SDS011;8250;52.426;9.450;2022-07-30T01:05:01;4.78;;;3.92;;
16284;SDS011;8250;52.426;9.450;2022-07-30T01:07:29;6.25;;;4.40;;
16284;SDS011;8250;52.426;9.450;2022-07-30T01:09:55;5.13;;;4.28;;
16284;SDS011;8250;52.426;9.450;2022-07-30T01:12:23;5.20;;;4.70;;
16284;SDS011;8250;52.426;9.450;2022-07-30T01:14:53;5.97;;;4.50;;
16284;SDS011;8250;52.426;9.450;2022-07-30T01:17:22;4.35;;;3.92;;
16284;SDS011;8250;52.426;9.450;2022-07-30T01:19:49;5.05;;;4.40;;
16284;SDS011;8250;52.426;9.450;2022-07-30T01:22:32;4.95;;;4.45;;
16284;SDS011;8250;52.426;9.450;2022-07-30T01:25:07;4.38;;;3.88;;
16284;SDS011;8250;52.426;9.450;2022-07-30T01:27:42;7.32;;;5.88;;
16284;SDS011;8250;52.426;9.450;2022-07-30T01:30:13;8.88;;;5.82;;
16284;SDS011;8250;52.426;9.450;2022-07-30T01:32:44;5.30;;;4.80;;
16284;SDS011;8250;52.426;9.450;2022-07-30T01:35:12;5.38;;;4.20;;
16284;SDS011;8250;52.426;9.450;2022-07-30T01:37:43;5.78;;;4.72;;
16284;SDS011;8250;52.426;9.450;2022-07-30T01:40:11;8.35;;;5.22;;
16284;SDS011;8250;52.426;9.450;2022-07-30T01:42:41;6.15;;;5.13;;
16284;SDS011;8250;52.426;9.450;2022-07-30T01:45:10;4.53;;;3.85;;
16284;SDS011;8250;52.426;9.450;2022-07-30T01:47:38;5.85;;;3.90;;
16284;SDS011;8250;52.426;9.450;2022-07-30T01:50:10;3.97;;;3.03;;
16284;SDS011;8250;52.426;9.450;2022-07-30T01:52:39;5.43;;;3.80;;
16284;SDS011;8250;52.426;9.450;2022-07-30T01:55:09;7.10;;;4.50;;
16284;SDS011;8250;52.426;9.450;2022-07-30T01:57:42;3.95;;;3.55;;
16284;SDS011;8250;52.426;9.450;2022-07-30T02:00:10;3.67;;;3.30;;
16284;SDS011;8250;52.426;9.450;2022-07-30T02:02:38;3.15;;;2.83;;
16284;SDS011;8250;52.426;9.450;2022-07-30T02:05:06;3.90;;;3.50;;
16284;SDS011;8250;52.426;9.450;2022-07-30T02:07:34;3.97;;;3.60;;
16284;SDS011;8250;52.426;9.450;2022-07-30T02:10:05;4.30;;;3.30;;
16284;SDS011;8250;52.426;9.450;2022-07-30T02:12:37;4.55;;;3.58;;
16284;SDS011;8250;52.426;9.450;2022-07-30T02:15:11;8.13;;;5.45;;
16284;SDS011;8250;52.426;9.450;2022-07-30T02:17:43;4.28;;;3.88;;
16284;SDS011;8250;52.426;9.450;2022-07-30T02:20:19;3.70;;;3.30;;
16284;SDS011;8250;52.426;9.450;2022-07-30T02:22:48;4.00;;;3.65;;
16284;SDS011;8250;52.426;9.450;2022-07-30T02:25:17;4.03;;;3.65;;
16284;SDS011;8250;52.426;9.450;2022-07-30T02:27:47;4.75;;;4.30;;
16284;SDS011;8250;52.426;9.450;2022-07-30T02:30:18;4.78;;;3.95;;
16284;SDS011;8250;52.426;9.450;2022-07-30T02:32:47;4.82;;;4.10;;
16284;SDS011;8250;52.426;9.450;2022-07-30T02:35:18;4.75;;;4.22;;
16284;SDS011;8250;52.426;9.450;2022-07-30T02:37:48;5.22;;;4.60;;
16284;SDS011;8250;52.426;9.450;2022-07-30T02:40:18;5.70;;;5.10;;
16284;SDS011;8250;52.426;9.450;2022-07-30T02:42:46;4.93;;;4.30;;
16284;SDS011;8250;52.426;9.450;2022-07-30T02:45:15;6.63;;;4.53;;
16284;SDS011;8250;52.426;9.450;2022-07-30T02:47:45;5.75;;;5.03;;
16284;SDS011;8250;52.426;9.450;2022-07-30T02:50:15;5.20;;;4.60;;
16284;SDS011;8250;52.426;9.450;2022-07-30T02:52:44;5.25;;;4.50;;
16284;SDS011;8250;52.426;9.450;2022-07-30T02:55:12;5.05;;;4.55;;
16284;SDS011;8250;52.426;9.450;2022-07-30T02:57:43;4.78;;;4.25;;
16284;SDS011;8250;52.426;9.450;2022-07-30T03:00:12;6.10;;;4.97;;
16284;SDS011;8250;52.426;9.450;2022-07-30T03:02:42;4.43;;;4.03;;
16284;SDS011;8250;52.426;9.450;2022-07-30T03:05:11;4.18;;;3.80;;
16284;SDS011;8250;52.426;9.450;2022-07-30T03:07:40;5.43;;;4.20;;
16284;SDS011;8250;52.426;9.450;2022-07-30T03:10:08;5.50;;;4.13;;
16284;SDS011;8250;52.426;9.450;2022-07-30T03:12:37;4.22;;;3.83;;
16284;SDS011;8250;52.426;9.450;2022-07-30T03:15:07;4.53;;;4.13;;
16284;SDS011;8250;52.426;9.450;2022-07-30T03:17:36;4.80;;;4.40;;
16284;SDS011;8250;52.426;9.450;2022-07-30T03:20:08;4.45;;;4.05;;
16284;SDS011;8250;52.426;9.450;2022-07-30T03:22:39;4.40;;;3.90;;
16284;SDS011;8250;52.426;9.450;2022-07-30T03:25:08;5.38;;;4.60;;
16284;SDS011;8250;52.426;9.450;2022-07-30T03:27:38;5.00;;;4.45;;
16284;SDS011;8250;52.426;9.450;2022-07-30T03:30:06;4.88;;;4.35;;
16284;SDS011;8250;52.426;9.450;2022-07-30T03:32:34;4.00;;;3.63;;
16284;SDS011;8250;52.426;9.450;2022-07-30T03:35:02;6.88;;;4.40;;
16284;SDS011;8250;52.426;9.450;2022-07-30T03:37:33;4.57;;;4.10;;
16284;SDS011;8250;52.426;9.450;2022-07-30T03:40:01;4.28;;;3.88;;
16284;SDS011;8250;52.426;9.450;2022-07-30T03:42:29;4.65;;;3.95;;
16284;SDS011;8250;52.426;9.450;2022-07-30T03:44:57;4.80;;;4.28;;
16284;SDS011;8250;52.426;9.450;2022-07-30T03:47:25;4.13;;;3.72;;
16284;SDS011;8250;52.426;9.450;2022-07-30T03:49:52;4.95;;;3.70;;
16284;SDS011;8250;52.426;9.450;2022-07-30T03:52:20;4.10;;;3.67;;
16284;SDS011;8250;52.426;9.450;2022-07-30T03:54:48;4.28;;;3.42;;
16284;SDS011;8250;52.426;9.450;2022-07-30T03:57:16;4.50;;;3.67;;
16284;SDS011;8250;52.426;9.450;2022-07-30T03:59:43;3.38;;;3.08;;
16284;SDS011;8250;52.426;9.450;2022-07-30T04:02:10;4.18;;;3.20;;
16284;SDS011;8250;52.426;9.450;2022-07-30T04:04:39;4.15;;;3.63;;
16284;SDS011;8250;52.426;9.450;2022-07-30T04:07:06;4.07;;;3.63;;
16284;SDS011;8250;52.426;9.450;2022-07-30T04:09:33;4.07;;;3.65;;
16284;SDS011;8250;52.426;9.450;2022-07-30T04:12:02;4.03;;;3.63;;
16284;SDS011;8250;52.426;9.450;2022-07-30T04:14:33;4.50;;;3.70;;
16284;SDS011;8250;52.426;9.450;2022-07-30T04:17:07;4.72;;;4.15;;
16284;SDS011;8250;52.426;9.450;2022-07-30T04:19:39;3.78;;;3.35;;
16284;SDS011;8250;52.426;9.450;2022-07-30T04:22:09;3.88;;;3.35;;
16284;SDS011;8250;52.426;9.450;2022-07-30T04:24:40;4.05;;;3.65;;
16284;SDS011;8250;52.426;9.450;2022-07-30T04:27:10;4.10;;;3.70;;
16284;SDS011;8250;52.426;9.450;2022-07-30T04:29:38;4.13;;;3.72;;
16284;SDS011;8250;52.426;9.450;2022-07-30T04:32:06;4.90;;;3.63;;
16284;SDS011;8250;52.426;9.450;2022-07-30T04:34:34;3.80;;;3.50;;
16284;SDS011;8250;52.426;9.450;2022-07-30T04:37:01;3.97;;;3.58;;
16284;SDS011;8250;52.426;9.450;2022-07-30T04:39:28;3.88;;;3.30;;
16284;SDS011;8250;52.426;9.450;2022-07-30T04:41:54;3.97;;;3.60;;
16284;SDS011;8250;52.426;9.450;2022-07-30T04:44:23;3.67;;;3.30;;
16284;SDS011;8250;52.426;9.450;2022-07-30T04:46:50;4.00;;;3.70;;
16284;SDS011;8250;52.426;9.450;2022-07-30T04:49:16;3.80;;;3.05;;
16284;SDS011;8250;52.426;9.450;2022-07-30T04:51:45;4.38;;;3.97;;
16284;SDS011;8250;52.426;9.450;2022-07-30T04:54:13;3.88;;;3.25;;
16284;SDS011;8250;52.426;9.450;2022-07-30T04:56:41;4.30;;;3.58;;
16284;SDS011;8250;52.426;9.450;2022-07-30T04:59:08;4.50;;;3.70;;
16284;SDS011;8250;52.426;9.450;2022-07-30T05:01:37;5.13;;;4.10;;
16284;SDS011;8250;52.426;9.450;2022-07-30T05:04:07;4.72;;;4.22;;
16284;SDS011;8250;52.426;9.450;2022-07-30T05:06:35;4.85;;;4.35;;
16284;SDS011;8250;52.426;9.450;2022-07-30T05:09:04;5.15;;;4.30;;
16284;SDS011;8250;52.426;9.450;2022-07-30T05:11:31;4.40;;;3.92;;
16284;SDS011;8250;52.426;9.450;2022-07-30T05:13:59;4.85;;;4.22;;
16284;SDS011;8250;52.426;9.450;2022-07-30T05:16:25;4.85;;;3.78;;
16284;SDS011;8250;52.426;9.450;2022-07-30T05:18:54;5.30;;;3.95;;
16284;SDS011;8250;52.426;9.450;2022-07-30T05:21:21;4.95;;;3.92;;
16284;SDS011;8250;52.426;9.450;2022-07-30T05:23:48;3.92;;;3.50;;
16284;SDS011;8250;52.426;9.450;2022-07-30T05:26:17;4.53;;;4.00;;
16284;SDS011;8250;52.426;9.450;2022-07-30T05:28:45;5.95;;;3.75;;
16284;SDS011;8250;52.426;9.450;2022-07-30T05:31:12;4.15;;;3.75;;
16284;SDS011;8250;52.426;9.450;2022-07-30T05:33:39;4.97;;;4.47;;
16284;SDS011;8250;52.426;9.450;2022-07-30T05:36:07;4.85;;;4.35;;
16284;SDS011;8250;52.426;9.450;2022-07-30T05:38:35;4.30;;;3.88;;
16284;SDS011;8250;52.426;9.450;2022-07-30T05:41:02;5.70;;;4.60;;
16284;SDS011;8250;52.426;9.450;2022-07-30T05:43:28;6.20;;;4.20;;
16284;SDS011;8250;52.426;9.450;2022-07-30T05:45:55;6.40;;;5.15;;
16284;SDS011;8250;52.426;9.450;2022-07-30T05:48:22;4.85;;;4.35;;
16284;SDS011;8250;52.426;9.450;2022-07-30T05:50:50;4.32;;;3.90;;
16284;SDS011;8250;52.426;9.450;2022-07-30T05:53:18;5.65;;;4.50;;
16284;SDS011;8250;52.426;9.450;2022-07-30T05:55:46;3.47;;;3.17;;
16284;SDS011;8250;52.426;9.450;2022-07-30T05:58:12;5.00;;;3.88;;
16284;SDS011;8250;52.426;9.450;2022-07-30T06:00:39;6.18;;;3.60;;
16284;SDS011;8250;52.426;9.450;2022-07-30T06:03:06;3.90;;;3.60;;
16284;SDS011;8250;52.426;9.450;2022-07-30T06:05:33;5.80;;;3.70;;
16284;SDS011;8250;52.426;9.450;2022-07-30T06:08:00;3.90;;;3.45;;
16284;SDS011;8250;52.426;9.450;2022-07-30T06:10:29;4.53;;;3.58;;
16284;SDS011;8250;52.426;9.450;2022-07-30T06:12:56;4.15;;;3.75;;
16284;SDS011;8250;52.426;9.450;2022-07-30T06:15:23;4.03;;;3.65;;
16284;SDS011;8250;52.426;9.450;2022-07-30T06:17:50;4.45;;;3.88;;
16284;SDS011;8250;52.426;9.450;2022-07-30T06:20:18;4.38;;;3.97;;
16284;SDS011;8250;52.426;9.450;2022-07-30T06:22:46;7.15;;;5.13;;
16284;SDS011;8250;52.426;9.450;2022-07-30T06:25:13;5.93;;;5.43;;
16284;SDS011;8250;52.426;9.450;2022-07-30T06:27:41;6.72;;;6.03;;
16284;SDS011;8250;52.426;9.450;2022-07-30T06:30:08;6.35;;;5.75;;
16284;SDS011;8250;52.426;9.450;2022-07-30T06:32:36;6.03;;;5.40;;
16284;SDS011;8250;52.426;9.450;2022-07-30T06:35:03;6.88;;;5.70;;
16284;SDS011;8250;52.426;9.450;2022-07-30T06:37:30;5.63;;;4.28;;
16284;SDS011;8250;52.426;9.450;2022-07-30T06:39:57;5.60;;;4.10;;
16284;SDS011;8250;52.426;9.450;2022-07-30T06:42:24;4.63;;;4.22;;
16284;SDS011;8250;52.426;9.450;2022-07-30T06:44:52;6.03;;;3.95;;
16284;SDS011;8250;52.426;9.450;2022-07-30T06:47:19;4.38;;;3.97;;
16284;SDS011;8250;52.426;9.450;2022-07-30T06:49:50;3.95;;;3.60;;
16284;SDS011;8250;52.426;9.450;2022-07-30T06:52:17;4.47;;;4.07;;
16284;SDS011;8250;52.426;9.450;2022-07-30T06:54:44;4.05;;;3.60;;
16284;SDS011;8250;52.426;9.450;2022-07-30T06:57:12;4.40;;;4.00;;
16284;SDS011;8250;52.426;9.450;2022-07-30T06:59:39;4.40;;;3.80;;
16284;SDS011;8250;52.426;9.450;2022-07-30T07:02:07;4.38;;;3.97;;
16284;SDS011;8250;52.426;9.450;2022-07-30T07:04:34;4.00;;;3.60;;
16284;SDS011;8250;52.426;9.450;2022-07-30T07:07:01;4.15;;;3.75;;
16284;SDS011;8250;52.426;9.450;2022-07-30T07:09:28;4.47;;;3.90;;
16284;SDS011;8250;52.426;9.450;2022-07-30T07:11:55;4.10;;;3.70;;
16284;SDS011;8250;52.426;9.450;2022-07-30T07:14:22;4.57;;;4.13;;
16284;SDS011;8250;52.426;9.450;2022-07-30T07:16:49;4.22;;;3.83;;
16284;SDS011;8250;52.426;9.450;2022-07-30T07:19:17;4.25;;;3.85;;
16284;SDS011;8250;52.426;9.450;2022-07-30T07:21:44;5.63;;;4.60;;
16284;SDS011;8250;52.426;9.450;2022-07-30T07:24:11;4.93;;;4.18;;
16284;SDS011;8250;52.426;9.450;2022-07-30T07:26:38;4.60;;;4.07;;
16284;SDS011;8250;52.426;9.450;2022-07-30T07:29:04;3.95;;;3.53;;
16284;SDS011;8250;52.426;9.450;2022-07-30T07:31:31;5.25;;;4.18;;
16284;SDS011;8250;52.426;9.450;2022-07-30T07:33:58;4.80;;;3.70;;
16284;SDS011;8250;52.426;9.450;2022-07-30T07:36:27;4.30;;;3.90;;
16284;SDS011;8250;52.426;9.450;2022-07-30T07:38:53;4.13;;;3.72;;
16284;SDS011;8250;52.426;9.450;2022-07-30T07:41:21;3.95;;;3.60;;
16284;SDS011;8250;52.426;9.450;2022-07-30T07:43:48;4.47;;;4.03;;
16284;SDS011;8250;52.426;9.450;2022-07-30T07:46:14;6.15;;;4.90;;
16284;SDS011;8250;52.426;9.450;2022-07-30T07:48:41;4.85;;;4.45;;
16284;SDS011;8250;52.426;9.450;2022-07-30T07:51:09;4.68;;;4.13;;
16284;SDS011;8250;52.426;9.450;2022-07-30T07:53:37;6.25;;;4.55;;
16284;SDS011;8250;52.426;9.450;2022-07-30T07:56:04;4.38;;;3.97;;
16284;SDS011;8250;52.426;9.450;2022-07-30T07:58:32;5.43;;;4.93;;
16284;SDS011;8250;52.426;9.450;2022-07-30T08:00:59;5.88;;;5.25;;
16284;SDS011;8250;52.426;9.450;2022-07-30T08:03:26;4.50;;;4.10;;
16284;SDS011;8250;52.426;9.450;2022-07-30T08:05:53;4.05;;;3.42;;
16284;SDS011;8250;52.426;9.450;2022-07-30T08:08:20;4.35;;;3.95;;
16284;SDS011;8250;52.426;9.450;2022-07-30T08:10:48;4.15;;;3.75;;
16284;SDS011;8250;52.426;9.450;2022-07-30T08:13:15;4.38;;;3.70;;
16284;SDS011;8250;52.426;9.450;2022-07-30T08:15:42;4.68;;;4.10;;
16284;SDS011;8250;52.426;9.450;2022-07-30T08:18:09;4.57;;;3.38;;
16284;SDS011;8250;52.426;9.450;2022-07-30T08:20:36;5.68;;;4.47;;
16284;SDS011;8250;52.426;9.450;2022-07-30T08:23:03;4.18;;;3.78;;
16284;SDS011;8250;52.426;9.450;2022-07-30T08:25:30;5.03;;;4.47;;
16284;SDS011;8250;52.426;9.450;2022-07-30T08:27:58;6.75;;;4.45;;
16284;SDS011;8250;52.426;9.450;2022-07-30T08:30:27;4.95;;;4.18;;
16284;SDS011;8250;52.426;9.450;2022-07-30T08:32:54;5.80;;;4.53;;
16284;SDS011;8250;52.426;9.450;2022-07-30T08:35:21;4.35;;;3.67;;
16284;SDS011;8250;52.426;9.450;2022-07-30T08:37:48;4.05;;;3.75;;
16284;SDS011;8250;52.426;9.450;2022-07-30T08:40:16;5.90;;;3.88;;
16284;SDS011;8250;52.426;9.450;2022-07-30T08:42:44;5.22;;;4.25;;
16284;SDS011;8250;52.426;9.450;2022-07-30T08:45:13;4.50;;;4.10;;
16284;SDS011;8250;52.426;9.450;2022-07-30T08:47:43;4.75;;;4.35;;
16284;SDS011;8250;52.426;9.450;2022-07-30T08:50:11;3.63;;;3.30;;
16284;SDS011;8250;52.426;9.450;2022-07-30T08:52:40;3.83;;;3.53;;
16284;SDS011;8250;52.426;9.450;2022-07-30T08:55:08;4.18;;;3.75;;
16284;SDS011;8250;52.426;9.450;2022-07-30T08:57:35;4.20;;;3.40;;
16284;SDS011;8250;52.426;9.450;2022-07-30T09:00:03;3.50;;;3.22;;
16284;SDS011;8250;52.426;9.450;2022-07-30T09:02:33;4.15;;;3.65;;
16284;SDS011;8250;52.426;9.450;2022-07-30T09:05:00;3.88;;;3.47;;
16284;SDS011;8250;52.426;9.450;2022-07-30T09:07:27;9.27;;;6.35;;
16284;SDS011;8250;52.426;9.450;2022-07-30T09:09:54;7.13;;;5.85;;
16284;SDS011;8250;52.426;9.450;2022-07-30T09:12:32;7.93;;;6.20;;
16284;SDS011;8250;52.426;9.450;2022-07-30T09:15:05;6.07;;;5.47;;
16284;SDS011;8250;52.426;9.450;2022-07-30T09:17:48;5.20;;;4.70;;
16284;SDS011;8250;52.426;9.450;2022-07-30T09:20:20;6.90;;;5.15;;
16284;SDS011;8250;52.426;9.450;2022-07-30T09:22:49;4.50;;;4.10;;
16284;SDS011;8250;52.426;9.450;2022-07-30T09:25:31;5.15;;;4.63;;
16284;SDS011;8250;52.426;9.450;2022-07-30T09:28:04;5.80;;;4.10;;
16284;SDS011;8250;52.426;9.450;2022-07-30T09:30:46;4.20;;;3.80;;
16284;SDS011;8250;52.426;9.450;2022-07-30T09:33:16;6.28;;;4.30;;
16284;SDS011;8250;52.426;9.450;2022-07-30T09:35:58;5.15;;;4.65;;
16284;SDS011;8250;52.426;9.450;2022-07-30T09:38:25;6.18;;;4.28;;
16284;SDS011;8250;52.426;9.450;2022-07-30T09:40:52;4.28;;;3.88;;
16284;SDS011;8250;52.426;9.450;2022-07-30T09:43:20;4.32;;;3.92;;
16284;SDS011;8250;52.426;9.450;2022-07-30T09:45:50;4.30;;;3.53;;
16284;SDS011;8250;52.426;9.450;2022-07-30T09:48:20;5.38;;;4.10;;
16284;SDS011;8250;52.426;9.450;2022-07-30T09:50:49;4.35;;;3.95;;
16284;SDS011;8250;52.426;9.450;2022-07-30T09:53:16;3.70;;;3.40;;
16284;SDS011;8250;52.426;9.450;2022-07-30T09:55:46;5.45;;;4.10;;
16284;SDS011;8250;52.426;9.450;2022-07-30T09:58:13;4.88;;;3.72;;
16284;SDS011;8250;52.426;9.450;2022-07-30T10:00:40;4.03;;;3.60;;
16284;SDS011;8250;52.426;9.450;2022-07-30T10:03:14;3.58;;;3.28;;
16284;SDS011;8250;52.426;9.450;2022-07-30T10:05:50;4.38;;;3.42;;
16284;SDS011;8250;52.426;9.450;2022-07-30T10:08:18;5.00;;;3.88;;
16284;SDS011;8250;52.426;9.450;2022-07-30T10:10:46;4.43;;;4.03;;
16284;SDS011;8250;52.426;9.450;2022-07-30T10:13:14;5.00;;;4.32;;
16284;SDS011;8250;52.426;9.450;2022-07-30T10:15:43;3.88;;;3.53;;
16284;SDS011;8250;52.426;9.450;2022-07-30T10:18:10;6.20;;;4.35;;
16284;SDS011;8250;52.426;9.450;2022-07-30T10:20:38;5.00;;;4.50;;
16284;SDS011;8250;52.426;9.450;2022-07-30T10:23:07;5.40;;;4.90;;
16284;SDS011;8250;52.426;9.450;2022-07-30T10:25:34;5.93;;;5.32;;
16284;SDS011;8250;52.426;9.450;2022-07-30T10:28:02;6.43;;;4.20;;
16284;SDS011;8250;52.426;9.450;2022-07-30T10:30:30;4.70;;;4.05;;
16284;SDS011;8250;52.426;9.450;2022-07-30T10:32:57;4.30;;;3.90;;
16284;SDS011;8250;52.426;9.450;2022-07-30T10:35:25;4.65;;;3.70;;
16284;SDS011;8250;52.426;9.450;2022-07-30T10:37:52;6.03;;;3.97;;
16284;SDS011;8250;52.426;9.450;2022-07-30T10:40:25;4.40;;;3.45;;
16284;SDS011;8250;52.426;9.450;2022-07-30T10:43:03;4.50;;;4.10;;
16284;SDS011;8250;52.426;9.450;2022-07-30T10:45:44;4.18;;;3.78;;
16284;SDS011;8250;52.426;9.450;2022-07-30T10:48:18;4.20;;;3.80;;
16284;SDS011;8250;52.426;9.450;2022-07-30T10:50:50;4.30;;;3.90;;
16284;SDS011;8250;52.426;9.450;2022-07-30T10:53:30;4.85;;;4.35;;
16284;SDS011;8250;52.426;9.450;2022-07-30T10:56:16;6.07;;;4.45;;
16284;SDS011;8250;52.426;9.450;2022-07-30T10:58:57;7.63;;;4.20;;
16284;SDS011;8250;52.426;9.450;2022-07-30T11:01:25;3.90;;;3.60;;
16284;SDS011;8250;52.426;9.450;2022-07-30T11:04:20;4.90;;;3.58;;
16284;SDS011;8250;52.426;9.450;2022-07-30T11:06:48;5.20;;;3.10;;
16284;SDS011;8250;52.426;9.450;2022-07-30T11:09:34;4.13;;;3.28;;
16284;SDS011;8250;52.426;9.450;2022-07-30T11:12:02;3.45;;;3.15;;
16284;SDS011;8250;52.426;9.450;2022-07-30T11:17:22;4.15;;;3.28;;
16284;SDS011;8250;52.426;9.450;2022-07-30T11:22:45;3.33;;;2.80;;
16284;SDS011;8250;52.426;9.450;2022-07-30T11:37:02;3.22;;;2.92;;
16284;SDS011;8250;52.426;9.450;2022-07-30T11:42:32;3.03;;;2.72;;
16284;SDS011;8250;52.426;9.450;2022-07-30T11:45:22;3.60;;;2.75;;
16284;SDS011;8250;52.426;9.450;2022-07-30T11:47:55;4.40;;;3.40;;
16284;SDS011;8250;52.426;9.450;2022-07-30T11:50:25;3.25;;;2.95;;
16284;SDS011;8250;52.426;9.450;2022-07-30T11:52:56;3.72;;;2.83;;
16284;SDS011;8250;52.426;9.450;2022-07-30T11:55:27;3.22;;;2.90;;
16284;SDS011;8250;52.426;9.450;2022-07-30T11:57:57;3.35;;;3.05;;
16284;SDS011;8250;52.426;9.450;2022-07-30T12:00:32;4.40;;;3.10;;
16284;SDS011;8250;52.426;9.450;2022-07-30T12:03:05;3.00;;;2.75;;
16284;SDS011;8250;52.426;9.450;2022-07-30T12:05:33;3.85;;;2.90;;
16284;SDS011;8250;52.426;9.450;2022-07-30T12:08:02;5.10;;;3.28;;
16284;SDS011;8250;52.426;9.450;2022-07-30T12:10:30;3.10;;;2.80;;
16284;SDS011;8250;52.426;9.450;2022-07-30T12:13:06;3.47;;;3.17;;
16284;SDS011;8250;52.426;9.450;2022-07-30T12:15:35;3.83;;;3.53;;
16284;SDS011;8250;52.426;9.450;2022-07-30T12:18:04;2.90;;;2.60;;
16284;SDS011;8250;52.426;9.450;2022-07-30T12:20:32;4.00;;;3.30;;
16284;SDS011;8250;52.426;9.450;2022-07-30T12:22:59;3.55;;;3.08;;
16284;SDS011;8250;52.426;9.450;2022-07-30T12:25:28;3.75;;;3.45;;
16284;SDS011;8250;52.426;9.450;2022-07-30T12:27:55;3.78;;;3.47;;
16284;SDS011;8250;52.426;9.450;2022-07-30T12:30:21;3.55;;;3.10;;
16284;SDS011;8250;52.426;9.450;2022-07-30T12:32:49;3.13;;;2.85;;
16284;SDS011;8250;52.426;9.450;2022-07-30T12:35:16;4.10;;;3.10;;
16284;SDS011;8250;52.426;9.450;2022-07-30T12:40:29;3.38;;;3.08;;
16284;SDS011;8250;52.426;9.450;2022-07-30T12:42:56;3.30;;;3.00;;
16284;SDS011;8250;52.426;9.450;2022-07-30T12:45:27;3.00;;;2.80;;
16284;SDS011;8250;52.426;9.450;2022-07-30T12:47:55;3.50;;;3.20;;
16284;SDS011;8250;52.426;9.450;2022-07-30T12:50:22;4.60;;;3.30;;
16284;SDS011;8250;52.426;9.450;2022-07-30T12:52:51;5.80;;;3.22;;
16284;SDS011;8250;52.426;9.450;2022-07-30T12:55:28;3.45;;;3.15;;
16284;SDS011;8250;52.426;9.450;2022-07-30T12:57:57;3.67;;;3.25;;
16284;SDS011;8250;52.426;9.450;2022-07-30T13:00:26;3.97;;;2.83;;
16284;SDS011;8250;52.426;9.450;2022-07-30T13:02:54;3.67;;;3.38;;
16284;SDS011;8250;52.426;9.450;2022-07-30T13:08:10;4.07;;;3.03;;
16284;SDS011;8250;52.426;9.450;2022-07-30T13:10:38;3.58;;;2.90;;
16284;SDS011;8250;52.426;9.450;2022-07-30T13:13:19;3.10;;;2.85;;
16284;SDS011;8250;52.426;9.450;2022-07-30T13:15:54;3.28;;;2.97;;
16284;SDS011;8250;52.426;9.450;2022-07-30T13:18:23;2.78;;;2.58;;
16284;SDS011;8250;52.426;9.450;2022-07-30T13:20:49;3.38;;;2.90;;
16284;SDS011;8250;52.426;9.450;2022-07-30T13:23:16;3.72;;;3.08;;
16284;SDS011;8250;52.426;9.450;2022-07-30T13:25:44;2.92;;;2.67;;
16284;SDS011;8250;52.426;9.450;2022-07-30T13:28:11;3.47;;;2.95;;
16284;SDS011;8250;52.426;9.450;2022-07-30T13:30:38;3.17;;;2.88;;
16284;SDS011;8250;52.426;9.450;2022-07-30T13:33:05;3.03;;;2.83;;
16284;SDS011;8250;52.426;9.450;2022-07-30T13:35:33;4.20;;;2.75;;
16284;SDS011;8250;52.426;9.450;2022-07-30T13:37:59;3.80;;;2.40;;
16284;SDS011;8250;52.426;9.450;2022-07-30T13:40:26;3.17;;;2.88;;
16284;SDS011;8250;52.426;9.450;2022-07-30T13:42:57;2.80;;;2.60;;
16284;SDS011;8250;52.426;9.450;2022-07-30T13:45:25;3.85;;;2.65;;
16284;SDS011;8250;52.426;9.450;2022-07-30T13:47:51;3.65;;;3.35;;
16284;SDS011;8250;52.426;9.450;2022-07-30T13:50:20;3.10;;;2.80;;
16284;SDS011;8250;52.426;9.450;2022-07-30T13:52:47;4.05;;;3.28;;
16284;SDS011;8250;52.426;9.450;2022-07-30T13:55:14;2.90;;;2.70;;
16284;SDS011;8250;52.426;9.450;2022-07-30T13:57:41;2.83;;;2.63;;
16284;SDS011;8250;52.426;9.450;2022-07-30T14:00:10;3.10;;;2.80;;
16284;SDS011;8250;52.426;9.450;2022-07-30T14:02:37;3.25;;;2.83;;
16284;SDS011;8250;52.426;9.450;2022-07-30T14:05:05;3.25;;;2.90;;
16284;SDS011;8250;52.426;9.450;2022-07-30T14:07:32;3.17;;;2.78;;
16284;SDS011;8250;52.426;9.450;2022-07-30T14:09:59;4.63;;;3.35;;
16284;SDS011;8250;52.426;9.450;2022-07-30T14:12:26;3.50;;;3.20;;
16284;SDS011;8250;52.426;9.450;2022-07-30T14:14:53;5.15;;;3.25;;
16284;SDS011;8250;52.426;9.450;2022-07-30T14:17:22;3.40;;;3.10;;
16284;SDS011;8250;52.426;9.450;2022-07-30T14:19:48;3.25;;;2.45;;
16284;SDS011;8250;52.426;9.450;2022-07-30T14:22:18;2.95;;;2.65;;
16284;SDS011;8250;52.426;9.450;2022-07-30T14:24:45;5.10;;;3.22;;
16284;SDS011;8250;52.426;9.450;2022-07-30T14:27:12;2.83;;;2.60;;
16284;SDS011;8250;52.426;9.450;2022-07-30T14:29:39;3.83;;;3.42;;
16284;SDS011;8250;52.426;9.450;2022-07-30T14:32:06;3.38;;;2.92;;
16284;SDS011;8250;52.426;9.450;2022-07-30T14:34:34;3.15;;;2.90;;
16284;SDS011;8250;52.426;9.450;2022-07-30T14:37:01;2.95;;;2.70;;
16284;SDS011;8250;52.426;9.450;2022-07-30T14:39:28;3.03;;;2.70;;
16284;SDS011;8250;52.426;9.450;2022-07-30T14:41:55;3.25;;;2.95;;
16284;SDS011;8250;52.426;9.450;2022-07-30T14:44:22;3.33;;;3.00;;
16284;SDS011;8250;52.426;9.450;2022-07-30T14:46:49;3.72;;;2.95;;
16284;SDS011;8250;52.426;9.450;2022-07-30T14:49:16;3.10;;;2.80;;
16284;SDS011;8250;52.426;9.450;2022-07-30T14:51:44;3.15;;;2.85;;
16284;SDS011;8250;52.426;9.450;2022-07-30T14:54:11;2.72;;;2.53;;
16284;SDS011;8250;52.426;9.450;2022-07-30T14:56:38;2.88;;;2.67;;
16284;SDS011;8250;52.426;9.450;2022-07-30T14:59:06;3.33;;;3.03;;
16284;SDS011;8250;52.426;9.450;2022-07-30T15:01:32;3.45;;;3.15;;
16284;SDS011;8250;52.426;9.450;2022-07-30T15:03:59;3.28;;;3.05;;
16284;SDS011;8250;52.426;9.450;2022-07-30T15:06:26;3.00;;;2.70;;
16284;SDS011;8250;52.426;9.450;2022-07-30T15:08:55;5.07;;;3.50;;
16284;SDS011;8250;52.426;9.450;2022-07-30T15:11:22;3.28;;;2.88;;
16284;SDS011;8250;52.426;9.450;2022-07-30T15:13:48;2.92;;;2.72;;
16284;SDS011;8250;52.426;9.450;2022-07-30T15:16:16;3.30;;;3.00;;
16284;SDS011;8250;52.426;9.450;2022-07-30T15:18:43;2.85;;;2.65;;
16284;SDS011;8250;52.426;9.450;2022-07-30T15:21:10;3.00;;;2.72;;
16284;SDS011;8250;52.426;9.450;2022-07-30T15:23:37;4.35;;;3.20;;
16284;SDS011;8250;52.426;9.450;2022-07-30T15:26:05;2.83;;;2.63;;
16284;SDS011;8250;52.426;9.450;2022-07-30T15:28:32;2.90;;;2.53;;
16284;SDS011;8250;52.426;9.450;2022-07-30T15:30:59;3.08;;;2.58;;
16284;SDS011;8250;52.426;9.450;2022-07-30T15:33:26;3.05;;;2.75;;
16284;SDS011;8250;52.426;9.450;2022-07-30T15:35:54;3.72;;;2.88;;